Time;durP1;ratioP1;P1;durP2;ratioP2;P2;SDS_P1;SDS_P2;PMS_P1;PMS_P2;Temp;Humidity;BMP_temperature;BMP_pressure;BME280_temperature;BME280_humidity;BME280_pressure;Samples;Min_cycle;Max_cycle;Signal;HPM_P1;HPM_P2
2023/08/22 00:00:10;;;;;;;5.80;3.50;;;20.50;99.90;;;;;;5035154;28;20167;-74
2023/08/22 00:02:36;;;;;;;4.53;3.00;;;20.50;99.90;;;;;;5035033;28;20187;-75
2023/08/22 00:05:02;;;;;;;4.80;3.40;;;20.40;99.90;;;;;;5034904;28;20923;-72
2023/08/22 00:07:27;;;;;;;2.53;2.33;;;20.40;99.90;;;;;;5034813;28;20191;-74
2023/08/22 00:09:53;;;;;;;4.77;3.10;;;20.30;99.90;;;;;;5034963;28;20402;-73
2023/08/22 00:12:18;;;;;;;4.10;3.70;;;20.30;99.90;;;;;;5034704;28;20238;-73
2023/08/22 00:14:44;;;;;;;3.17;2.93;;;20.20;99.90;;;;;;5034825;28;20533;-73
2023/08/22 00:17:10;;;;;;;3.93;3.03;;;20.30;99.90;;;;;;5034422;28;20175;-73
2023/08/22 00:19:38;;;;;;;5.20;3.33;;;20.30;99.90;;;;;;5033730;28;20991;-73
2023/08/22 00:22:04;;;;;;;6.80;3.53;;;20.30;99.90;;;;;;5034675;28;20437;-73
2023/08/22 00:24:30;;;;;;;6.93;3.83;;;20.40;99.90;;;;;;5034863;28;20411;-74
2023/08/22 00:26:57;;;;;;;8.23;4.10;;;20.40;99.90;;;;;;5034359;28;20406;-73
2023/08/22 00:29:22;;;;;;;10.30;3.93;;;20.50;99.90;;;;;;5034622;28;20414;-74
2023/08/22 00:31:48;;;;;;;6.37;3.13;;;20.60;99.90;;;;;;5044001;28;20467;-73
2023/08/22 00:34:13;;;;;;;3.53;2.30;;;20.70;99.90;;;;;;5054565;28;20201;-73
2023/08/22 00:36:39;;;;;;;3.93;2.80;;;20.80;99.90;;;;;;5046511;28;20644;-74
2023/08/22 00:39:04;;;;;;;3.23;2.93;;;20.80;99.90;;;;;;5048660;28;20175;-74
2023/08/22 00:41:30;;;;;;;3.87;3.50;;;20.90;99.90;;;;;;5053809;28;20190;-74
2023/08/22 00:43:55;;;;;;;3.77;3.10;;;21.00;99.90;;;;;;5054193;28;20206;-74
2023/08/22 00:46:23;;;;;;;9.20;4.00;;;21.10;99.90;;;;;;5053983;28;20175;-74
2023/08/22 00:48:49;;;;;;;3.47;3.10;;;21.10;99.90;;;;;;5054053;28;20173;-74
2023/08/22 00:51:17;;;;;;;4.43;2.90;;;21.10;99.90;;;;;;5048377;28;20421;-74
2023/08/22 00:53:42;;;;;;;6.07;3.40;;;21.10;99.90;;;;;;5048443;28;20238;-74
2023/08/22 00:56:09;;;;;;;3.93;3.40;;;21.10;99.90;;;;;;5053427;28;20452;-73
2023/08/22 00:58:35;;;;;;;3.80;3.40;;;21.10;99.90;;;;;;5054002;28;20174;-74
2023/08/22 01:01:02;;;;;;;3.33;3.03;;;21.10;99.90;;;;;;5047456;28;20517;-74
2023/08/22 01:03:28;;;;;;;3.17;2.87;;;21.10;99.90;;;;;;5050006;28;20425;-74
2023/08/22 01:06:20;;;;;;;4.13;3.23;;;21.10;99.90;;;;;;5052319;28;20424;-74
2023/08/22 01:08:50;;;;;;;3.60;3.27;;;21.10;99.90;;;;;;5036035;28;20225;-75
2023/08/22 01:11:40;;;;;;;5.53;3.17;;;21.00;99.90;;;;;;5035938;28;20425;-74
2023/08/22 01:14:09;;;;;;;4.23;3.53;;;20.90;99.90;;;;;;5046886;28;20433;-74
2023/08/22 01:16:36;;;;;;;4.67;3.80;;;20.90;99.90;;;;;;5053202;28;20500;-73
2023/08/22 01:19:04;;;;;;;5.07;3.37;;;20.70;99.90;;;;;;5051708;28;20417;-74
2023/08/22 01:21:34;;;;;;;7.33;3.67;;;20.70;99.90;;;;;;5051922;28;20440;-74
2023/08/22 01:24:00;;;;;;;5.80;3.83;;;20.60;99.90;;;;;;5053572;28;20428;-74
2023/08/22 01:26:26;;;;;;;5.70;3.90;;;20.50;99.90;;;;;;5053247;28;20823;-73
2023/08/22 01:28:58;;;;;;;6.10;4.40;;;20.40;99.90;;;;;;5048819;28;20170;-73
2023/08/22 01:31:35;;;;;;;6.00;4.47;;;20.30;99.90;;;;;;5033283;28;20427;-74
2023/08/22 01:34:06;;;;;;;5.93;4.37;;;20.20;99.90;;;;;;5033465;28;20413;-74
2023/08/22 01:36:32;;;;;;;3.93;3.50;;;20.10;99.90;;;;;;5033590;28;20997;-74
2023/08/22 01:39:03;;;;;;;5.17;3.77;;;20.00;99.90;;;;;;5048149;28;20413;-74
2023/08/22 01:41:29;;;;;;;7.00;3.80;;;20.00;99.90;;;;;;5053030;28;20524;-74
2023/08/22 01:43:54;;;;;;;7.93;4.30;;;19.90;99.90;;;;;;5052967;28;20512;-74
2023/08/22 01:46:20;;;;;;;8.03;4.63;;;19.90;99.90;;;;;;5052851;28;20182;-74
2023/08/22 01:48:45;;;;;;;6.10;3.90;;;19.80;99.90;;;;;;5053059;28;20181;-74
2023/08/22 01:51:11;;;;;;;8.20;4.40;;;19.80;99.90;;;;;;5052954;28;20171;-75
2023/08/22 01:53:36;;;;;;;6.27;4.40;;;19.70;99.90;;;;;;5052977;28;20234;-74
2023/08/22 01:56:02;;;;;;;5.87;4.30;;;19.60;99.90;;;;;;5036717;28;20191;-74
2023/08/22 01:58:28;;;;;;;5.53;4.23;;;19.60;99.90;;;;;;5032933;28;20171;-74
2023/08/22 02:00:53;;;;;;;8.03;4.53;;;19.50;99.90;;;;;;5032906;28;20175;-74
2023/08/22 02:03:20;;;;;;;11.10;4.07;;;19.50;99.90;;;;;;5032770;28;20274;-75
2023/08/22 02:05:46;;;;;;;4.67;4.27;;;19.50;99.90;;;;;;5032615;28;20259;-75
2023/08/22 02:08:11;;;;;;;4.90;4.40;;;19.40;99.90;;;;;;5032032;28;20458;-75
2023/08/22 02:10:37;;;;;;;5.90;3.90;;;19.40;99.90;;;;;;5031408;28;20179;-74
2023/08/22 02:13:03;;;;;;;5.30;3.70;;;19.30;99.90;;;;;;5031323;28;20732;-75
2023/08/22 02:15:29;;;;;;;4.40;3.50;;;19.30;99.90;;;;;;5032406;28;20281;-75
2023/08/22 02:17:54;;;;;;;4.57;3.70;;;19.20;99.90;;;;;;5032615;28;20175;-76
2023/08/22 02:20:20;;;;;;;4.10;3.50;;;19.20;99.90;;;;;;5032513;28;20406;-76
2023/08/22 02:22:46;;;;;;;4.47;3.27;;;19.10;99.90;;;;;;5032500;28;20191;-76
2023/08/22 02:25:11;;;;;;;4.50;3.40;;;19.10;99.90;;;;;;5032172;28;20167;-76
2023/08/22 02:27:37;;;;;;;5.00;3.93;;;19.00;99.90;;;;;;5032501;28;20636;-75
2023/08/22 02:30:11;;;;;;;8.53;3.80;;;19.00;99.90;;;;;;5032403;28;20176;-75
2023/08/22 02:32:36;;;;;;;4.30;3.90;;;19.00;99.90;;;;;;5048337;28;20206;-76
2023/08/22 02:35:03;;;;;;;7.00;4.10;;;19.00;99.90;;;;;;5051960;28;20412;-76
2023/08/22 02:37:29;;;;;;;6.33;3.97;;;19.10;99.90;;;;;;5040435;28;20175;-75
2023/08/22 02:39:55;;;;;;;6.57;4.50;;;19.10;99.90;;;;;;5047506;28;20422;-76
2023/08/22 02:42:21;;;;;;;12.77;4.20;;;19.10;99.90;;;;;;5051892;28;20190;-76
2023/08/22 02:44:47;;;;;;;4.73;3.80;;;19.10;99.90;;;;;;5052034;28;20987;-76
2023/08/22 02:47:12;;;;;;;6.83;5.00;;;19.10;99.90;;;;;;5051697;28;20492;-76
2023/08/22 02:49:38;;;;;;;7.30;6.60;;;19.10;99.90;;;;;;5052014;28;20208;-76
2023/08/22 02:52:05;;;;;;;10.80;6.50;;;19.00;99.90;;;;;;5051837;28;20660;-75
2023/08/22 02:54:30;;;;;;;11.43;5.90;;;19.00;99.90;;;;;;5049312;28;20168;-75
2023/08/22 02:56:56;;;;;;;5.33;4.60;;;19.00;99.90;;;;;;5030365;28;20552;-76
2023/08/22 02:59:21;;;;;;;7.50;5.50;;;19.00;99.90;;;;;;5032035;28;20244;-76
2023/08/22 03:01:47;;;;;;;8.13;4.77;;;18.90;99.90;;;;;;5031842;28;20273;-75
2023/08/22 03:04:12;;;;;;;11.77;7.60;;;18.90;99.90;;;;;;5032113;28;20168;-76
2023/08/22 03:06:38;;;;;;;14.07;8.57;;;18.80;99.90;;;;;;5031546;28;20211;-76
2023/08/22 03:09:04;;;;;;;13.77;9.27;;;18.80;99.90;;;;;;5032200;28;20192;-74
2023/08/22 03:11:29;;;;;;;10.07;7.40;;;18.80;99.90;;;;;;5030456;28;20199;-75
2023/08/22 03:13:55;;;;;;;8.57;6.40;;;18.70;99.90;;;;;;5031811;28;20210;-75
2023/08/22 03:16:21;;;;;;;8.93;6.20;;;18.70;99.90;;;;;;5030370;28;20171;-74
2023/08/22 03:18:46;;;;;;;5.83;5.23;;;18.70;99.90;;;;;;5031486;28;20163;-74
2023/08/22 03:21:12;;;;;;;6.90;6.20;;;18.60;99.90;;;;;;5034025;28;20180;-75
2023/08/22 03:23:37;;;;;;;7.40;5.30;;;18.60;99.90;;;;;;5034632;28;20234;-75
2023/08/22 03:26:03;;;;;;;6.80;4.50;;;18.60;99.90;;;;;;5034516;28;20583;-75
2023/08/22 03:28:29;;;;;;;7.60;4.50;;;18.50;99.90;;;;;;5034430;28;20707;-75
2023/08/22 03:31:02;;;;;;;5.93;4.80;;;18.50;99.90;;;;;;5036218;28;20167;-74
2023/08/22 03:33:29;;;;;;;8.63;4.20;;;18.40;99.90;;;;;;5055426;28;20457;-74
2023/08/22 03:35:56;;;;;;;8.03;4.53;;;18.40;99.90;;;;;;5051584;28;20428;-75
2023/08/22 03:38:22;;;;;;;5.73;3.63;;;18.40;99.90;;;;;;5044378;28;20504;-75
2023/08/22 03:40:48;;;;;;;5.27;4.30;;;18.30;99.90;;;;;;5053726;28;20405;-75
2023/08/22 03:43:16;;;;;;;4.83;4.33;;;18.30;99.90;;;;;;5055412;28;20429;-74
2023/08/22 03:45:42;;;;;;;6.50;4.87;;;18.30;99.90;;;;;;5055109;28;20405;-75
2023/08/22 03:48:08;;;;;;;6.00;4.03;;;18.20;99.90;;;;;;5055228;28;20409;-74
2023/08/22 03:50:33;;;;;;;9.87;4.40;;;18.20;99.90;;;;;;5055302;28;20405;-75
2023/08/22 03:52:59;;;;;;;4.30;3.67;;;18.20;99.90;;;;;;5054856;28;20285;-74
2023/08/22 03:55:24;;;;;;;4.73;4.17;;;18.10;99.90;;;;;;5045489;28;20168;-74
2023/08/22 03:57:50;;;;;;;5.00;3.77;;;18.10;99.90;;;;;;5035242;28;20179;-74
2023/08/22 04:00:16;;;;;;;4.40;3.97;;;18.10;99.90;;;;;;5035119;28;20243;-74
2023/08/22 04:02:41;;;;;;;5.00;4.40;;;18.10;99.90;;;;;;5035033;28;20205;-75
2023/08/22 04:05:07;;;;;;;3.60;3.30;;;18.00;99.90;;;;;;5033628;28;20187;-75
2023/08/22 04:07:32;;;;;;;3.60;3.30;;;18.00;99.90;;;;;;5033787;28;20187;-74
2023/08/22 04:09:58;;;;;;;5.27;4.27;;;18.00;99.90;;;;;;5034931;28;20207;-74
2023/08/22 04:12:23;;;;;;;6.37;4.67;;;17.90;99.90;;;;;;5034845;28;20265;-74
2023/08/22 04:14:49;;;;;;;7.10;4.20;;;17.90;99.90;;;;;;5034831;28;20168;-75
2023/08/22 04:17:15;;;;;;;5.63;3.80;;;17.90;99.90;;;;;;5034799;28;20197;-75
2023/08/22 04:19:41;;;;;;;4.13;3.77;;;17.90;99.90;;;;;;5034728;28;20189;-74
2023/08/22 04:22:07;;;;;;;4.50;4.10;;;17.90;99.90;;;;;;5034552;28;20199;-75
2023/08/22 04:24:32;;;;;;;4.00;3.60;;;17.80;99.90;;;;;;5034647;28;20410;-74
2023/08/22 04:26:58;;;;;;;4.63;4.23;;;17.80;99.90;;;;;;5034503;28;20669;-74
2023/08/22 04:29:23;;;;;;;3.97;3.67;;;17.80;99.90;;;;;;5034702;28;20174;-74
2023/08/22 04:31:49;;;;;;;4.83;4.33;;;17.70;99.90;;;;;;5033581;28;20203;-74
2023/08/22 04:34:15;;;;;;;4.87;4.00;;;17.70;99.90;;;;;;5040151;28;20171;-74
2023/08/22 04:36:40;;;;;;;4.70;3.77;;;17.70;99.90;;;;;;5038531;28;20184;-74
2023/08/22 04:39:06;;;;;;;6.73;4.53;;;17.70;99.90;;;;;;5045929;28;20182;-74
2023/08/22 04:41:32;;;;;;;9.00;4.60;;;17.70;99.90;;;;;;5042540;28;20250;-75
2023/08/22 04:43:57;;;;;;;6.90;4.60;;;17.70;99.90;;;;;;5054110;28;20183;-74
2023/08/22 04:46:23;;;;;;;4.47;4.03;;;17.70;99.90;;;;;;5053669;28;20175;-74
2023/08/22 04:48:48;;;;;;;8.80;4.23;;;17.70;99.90;;;;;;5054236;28;20191;-74
2023/08/22 04:51:14;;;;;;;5.77;4.43;;;17.70;99.90;;;;;;5052702;28;20185;-74
2023/08/22 04:53:40;;;;;;;6.27;3.93;;;17.70;99.90;;;;;;5045865;28;20676;-74
2023/08/22 04:56:05;;;;;;;5.30;4.70;;;17.80;99.90;;;;;;5039740;28;20167;-74
2023/08/22 04:58:31;;;;;;;5.60;3.97;;;17.90;99.90;;;;;;5053894;28;20705;-74
2023/08/22 05:00:57;;;;;;;5.80;5.27;;;17.90;99.90;;;;;;5053678;28;20197;-74
2023/08/22 05:03:23;;;;;;;5.63;4.00;;;18.00;99.90;;;;;;5053902;28;20429;-74
2023/08/22 05:05:49;;;;;;;5.40;3.87;;;18.10;99.90;;;;;;5053469;28;20171;-74
2023/08/22 05:08:15;;;;;;;11.20;8.30;;;18.20;99.90;;;;;;5053749;28;20461;-75
2023/08/22 05:10:40;;;;;;;25.60;17.37;;;18.30;99.90;;;;;;5053797;28;20467;-74
2023/08/22 05:13:06;;;;;;;24.10;17.57;;;18.40;99.90;;;;;;5053657;28;20700;-74
2023/08/22 05:15:31;;;;;;;17.37;12.10;;;18.40;99.90;;;;;;5053396;28;20629;-75
2023/08/22 05:17:57;;;;;;;8.97;7.40;;;18.50;99.90;;;;;;5053679;28;20582;-75
2023/08/22 05:20:22;;;;;;;5.13;4.27;;;18.50;99.90;;;;;;5053745;28;20254;-75
2023/08/22 05:22:48;;;;;;;7.50;5.13;;;18.50;99.90;;;;;;5053461;28;20186;-74
2023/08/22 05:25:13;;;;;;;8.33;4.03;;;18.50;99.90;;;;;;5053353;28;20533;-74
2023/08/22 05:27:39;;;;;;;5.10;4.60;;;18.50;99.90;;;;;;5053483;28;20178;-75
2023/08/22 05:30:06;;;;;;;4.27;3.17;;;18.50;99.90;;;;;;5053505;28;20174;-75
2023/08/22 05:32:31;;;;;;;4.43;4.03;;;18.60;99.90;;;;;;5053180;28;20552;-75
2023/08/22 05:34:58;;;;;;;4.93;3.97;;;18.60;99.90;;;;;;5053195;28;20418;-74
2023/08/22 05:37:24;;;;;;;8.27;4.90;;;18.70;99.90;;;;;;5040464;28;20558;-74
2023/08/22 05:39:49;;;;;;;4.27;3.87;;;18.80;99.90;;;;;;5045317;28;20491;-75
2023/08/22 05:42:15;;;;;;;5.40;4.30;;;18.90;99.90;;;;;;5046153;28;20429;-74
2023/08/22 05:44:40;;;;;;;5.33;3.90;;;19.00;99.90;;;;;;5053124;28;20209;-74
2023/08/22 05:47:08;;;;;;;7.93;3.57;;;19.10;99.90;;;;;;5052845;28;20178;-74
2023/08/22 05:49:33;;;;;;;9.60;4.20;;;19.20;99.90;;;;;;5053216;28;20170;-74
2023/08/22 05:52:03;;;;;;;4.30;3.90;;;19.40;99.90;;;;;;5046658;28;20459;-74
2023/08/22 05:54:30;;;;;;;8.43;4.43;;;19.50;99.90;;;;;;5052920;28;20250;-74
2023/08/22 05:56:55;;;;;;;8.83;4.37;;;19.70;99.90;;;;;;5052747;28;20787;-74
2023/08/22 05:59:23;;;;;;;4.77;4.30;;;20.00;99.90;;;;;;5053012;28;20405;-74
2023/08/22 06:01:49;;;;;;;7.33;4.53;;;20.20;99.90;;;;;;5052737;28;20210;-74
2023/08/22 06:04:16;;;;;;;6.07;5.07;;;20.60;99.90;;;;;;5052818;28;20936;-74
2023/08/22 06:06:41;;;;;;;8.40;4.50;;;21.10;99.90;;;;;;5052282;28;20789;-74
2023/08/22 06:09:07;;;;;;;6.93;4.20;;;21.60;99.90;;;;;;5052617;28;20451;-74
2023/08/22 06:11:32;;;;;;;4.80;4.13;;;22.40;99.90;;;;;;5052547;28;20190;-74
2023/08/22 06:13:58;;;;;;;4.40;3.43;;;23.30;99.90;;;;;;5052588;28;20205;-74
2023/08/22 06:16:23;;;;;;;6.20;4.13;;;23.90;99.90;;;;;;5052348;28;20522;-73
2023/08/22 06:18:49;;;;;;;5.50;4.33;;;24.60;99.90;;;;;;5044861;28;20175;-71
2023/08/22 06:21:14;;;;;;;3.83;3.53;;;24.80;99.90;;;;;;5047040;28;20167;-72
2023/08/22 06:23:39;;;;;;;5.20;3.87;;;24.90;99.90;;;;;;5054071;28;20721;-71
2023/08/22 06:26:05;;;;;;;3.83;3.50;;;24.90;99.90;;;;;;5053388;28;20194;-72
2023/08/22 06:28:30;;;;;;;5.33;4.13;;;25.10;99.90;;;;;;5053569;28;20292;-72
2023/08/22 06:31:01;;;;;;;4.70;4.00;;;25.60;99.90;;;;;;5053598;28;20249;-72
2023/08/22 06:33:27;;;;;;;5.40;4.30;;;26.40;99.90;;;;;;5053350;28;20214;-72
2023/08/22 06:35:52;;;;;;;7.50;3.40;;;27.60;99.90;;;;;;5053007;28;20397;-72
2023/08/22 06:38:18;;;;;;;6.70;3.70;;;28.50;99.90;;;;;;5038887;28;20632;-72
2023/08/22 06:40:43;;;;;;;5.03;3.60;;;29.30;99.90;;;;;;5044246;28;20175;-72
2023/08/22 06:43:09;;;;;;;3.90;3.60;;;30.20;99.90;;;;;;5052447;28;20192;-72
2023/08/22 06:45:34;;;;;;;3.23;2.90;;;30.20;99.90;;;;;;5052675;28;20257;-72
2023/08/22 06:48:00;;;;;;;4.67;4.10;;;29.80;99.90;;;;;;5053187;28;20175;-72
2023/08/22 06:50:25;;;;;;;3.97;3.17;;;29.40;99.10;;;;;;5045985;28;20172;-72
2023/08/22 06:52:51;;;;;;;4.77;4.27;;;29.20;99.90;;;;;;5050167;28;20217;-72
2023/08/22 06:55:16;;;;;;;4.57;4.17;;;29.00;99.90;;;;;;5045671;28;20167;-72
2023/08/22 06:57:42;;;;;;;6.63;3.93;;;28.80;99.90;;;;;;5051789;28;20175;-72
2023/08/22 07:00:15;;;;;;;4.63;3.83;;;28.70;99.90;;;;;;5053927;28;20170;-71
2023/08/22 07:02:41;;;;;;;3.80;3.50;;;28.70;99.90;;;;;;5052201;28;20198;-72
2023/08/22 07:05:09;;;;;;;4.90;4.40;;;28.60;99.90;;;;;;5047184;28;20415;-72
2023/08/22 07:07:35;;;;;;;9.30;4.93;;;28.50;99.90;;;;;;5052786;28;20437;-72
2023/08/22 07:10:01;;;;;;;5.20;4.30;;;28.40;99.90;;;;;;5054106;28;20409;-72
2023/08/22 07:12:26;;;;;;;4.20;3.80;;;28.50;99.90;;;;;;5053896;28;20993;-72
2023/08/22 07:14:52;;;;;;;3.87;3.57;;;28.80;99.90;;;;;;5053750;28;20238;-73
2023/08/22 07:17:17;;;;;;;4.33;4.00;;;29.20;99.90;;;;;;5052561;28;20197;-72
2023/08/22 07:19:42;;;;;;;3.23;2.93;;;29.80;98.10;;;;;;5043082;28;20171;-72
2023/08/22 07:22:08;;;;;;;6.30;3.70;;;30.80;95.10;;;;;;5052897;28;20574;-72
2023/08/22 07:24:34;;;;;;;4.13;2.87;;;32.00;90.20;;;;;;5052724;28;20220;-72
2023/08/22 07:26:59;;;;;;;5.50;3.00;;;33.00;79.50;;;;;;5052600;28;20174;-74
2023/08/22 07:29:25;;;;;;;10.37;6.07;;;34.50;70.90;;;;;;5053695;28;20167;-72
2023/08/22 07:31:51;;;;;;;3.43;3.13;;;35.60;55.40;;;;;;5049488;28;20195;-73
2023/08/22 07:34:16;;;;;;;2.90;2.63;;;36.00;53.40;;;;;;5038159;28;20190;-73
2023/08/22 07:36:42;;;;;;;3.43;3.13;;;35.80;51.60;;;;;;5044447;28;20185;-73
2023/08/22 07:39:07;;;;;;;3.20;3.00;;;35.50;51.20;;;;;;5053007;28;20648;-72
2023/08/22 07:41:33;;;;;;;3.33;3.07;;;35.30;51.40;;;;;;5052728;28;20183;-73
2023/08/22 07:43:58;;;;;;;7.40;3.20;;;36.10;51.00;;;;;;5053139;28;20274;-73
2023/08/22 07:46:24;;;;;;;3.63;2.80;;;36.70;48.90;;;;;;5051227;28;20270;-72
2023/08/22 07:48:49;;;;;;;3.67;3.03;;;36.50;47.90;;;;;;5051057;28;20167;-72
2023/08/22 07:51:15;;;;;;;5.80;2.80;;;36.00;47.90;;;;;;5051917;28;20179;-72
2023/08/22 07:53:40;;;;;;;5.67;3.33;;;36.00;48.80;;;;;;5052036;28;20837;-72
2023/08/22 07:56:06;;;;;;;3.60;3.30;;;36.30;47.70;;;;;;5051594;28;20246;-72
2023/08/22 07:58:31;;;;;;;4.33;3.27;;;36.30;46.90;;;;;;5051974;28;20167;-72
2023/08/22 08:00:57;;;;;;;3.80;3.00;;;36.10;46.50;;;;;;5051928;28;20163;-72
2023/08/22 08:03:22;;;;;;;4.57;3.30;;;36.00;46.70;;;;;;5051938;28;20541;-72
2023/08/22 08:05:48;;;;;;;5.43;3.40;;;35.70;46.90;;;;;;5052686;28;20198;-72
2023/08/22 08:08:14;;;;;;;4.17;3.07;;;35.40;47.60;;;;;;5055912;28;20183;-72
2023/08/22 08:10:39;;;;;;;6.13;3.70;;;35.10;48.30;;;;;;5055797;28;20245;-72
2023/08/22 08:13:05;;;;;;;4.30;3.90;;;34.90;48.50;;;;;;5055579;28;20195;-72
2023/08/22 08:15:30;;;;;;;3.60;3.00;;;34.70;48.70;;;;;;5055449;28;20164;-72
2023/08/22 08:17:58;;;;;;;4.03;2.93;;;34.60;49.10;;;;;;5055871;28;20242;-72
2023/08/22 08:20:24;;;;;;;4.67;2.70;;;34.70;50.10;;;;;;5055741;28;20162;-72
2023/08/22 08:22:50;;;;;;;3.60;2.50;;;35.10;50.30;;;;;;5054153;28;20938;-73
2023/08/22 08:25:15;;;;;;;6.40;3.80;;;35.20;48.90;;;;;;5052566;28;20422;-72
2023/08/22 08:27:41;;;;;;;4.00;2.97;;;35.30;47.60;;;;;;5048335;28;20193;-72
2023/08/22 08:30:07;;;;;;;4.20;3.80;;;35.30;47.50;;;;;;5045318;28;20175;-71
2023/08/22 08:32:33;;;;;;;3.63;3.23;;;35.40;47.50;;;;;;5052661;28;20657;-73
2023/08/22 08:34:58;;;;;;;4.70;2.83;;;36.00;47.60;;;;;;5055495;28;20453;-72
2023/08/22 08:37:24;;;;;;;3.33;2.90;;;36.10;47.00;;;;;;5049830;28;20183;-72
2023/08/22 08:39:49;;;;;;;4.57;3.10;;;36.10;47.20;;;;;;5048069;28;20233;-72
2023/08/22 08:42:15;;;;;;;4.23;2.80;;;36.70;48.20;;;;;;5047110;28;20760;-72
2023/08/22 08:44:41;;;;;;;6.50;3.33;;;38.20;46.50;;;;;;5053288;28;20175;-72
2023/08/22 08:47:08;;;;;;;4.13;3.83;;;39.00;44.60;;;;;;5054587;28;20640;-72
2023/08/22 08:49:35;;;;;;;4.23;3.57;;;39.00;43.70;;;;;;5055772;28;20960;-72
2023/08/22 08:52:08;;;;;;;7.03;3.03;;;39.00;43.30;;;;;;5055171;28;20973;-72
2023/08/22 08:54:35;;;;;;;3.90;2.70;;;40.60;44.00;;;;;;5056238;28;20511;-72
2023/08/22 08:57:00;;;;;;;3.03;2.37;;;42.90;41.30;;;;;;5055190;28;20858;-73
2023/08/22 08:59:30;;;;;;;4.00;3.40;;;45.40;38.80;;;;;;5053759;28;20471;-73
2023/08/22 09:01:56;;;;;;;2.80;2.60;;;46.80;35.60;;;;;;5053609;28;20191;-73
2023/08/22 09:04:22;;;;;;;3.63;2.50;;;47.40;33.90;;;;;;5045834;28;20393;-74
2023/08/22 09:06:48;;;;;;;4.80;3.37;;;48.00;31.50;;;;;;5053137;28;20400;-74
2023/08/22 09:09:15;;;;;;;3.20;2.83;;;48.60;31.10;;;;;;5054822;28;20178;-71
2023/08/22 09:11:45;;;;;;;3.20;2.67;;;49.60;29.60;;;;;;5053858;28;20408;-71
2023/08/22 09:14:10;;;;;;;3.00;2.70;;;50.90;28.90;;;;;;5054826;28;20410;-71
2023/08/22 09:16:36;;;;;;;2.73;2.50;;;52.00;27.50;;;;;;5054903;28;20408;-71
2023/08/22 09:19:02;;;;;;;2.83;2.63;;;52.90;26.50;;;;;;5055005;28;20171;-72
2023/08/22 09:21:29;;;;;;;2.70;2.50;;;53.70;25.90;;;;;;5056293;28;20189;-72
2023/08/22 09:24:09;;;;;;;3.53;3.23;;;54.00;25.30;;;;;;5056629;28;20391;-72
2023/08/22 09:26:35;;;;;;;3.57;3.30;;;54.20;25.20;;;;;;5055938;28;20397;-72
2023/08/22 09:29:07;;;;;;;3.80;3.40;;;54.50;24.80;;;;;;5056490;28;20394;-71
2023/08/22 09:31:34;;;;;;;3.47;3.17;;;54.20;24.50;;;;;;5053415;28;20449;-72
2023/08/22 09:34:07;;;;;;;3.27;3.07;;;53.70;24.90;;;;;;5055359;28;20464;-71
2023/08/22 09:36:33;;;;;;;6.07;3.13;;;53.90;24.90;;;;;;5054339;28;20427;-71
2023/08/22 09:38:58;;;;;;;4.30;3.80;;;53.20;24.10;;;;;;5049606;28;20502;-71
2023/08/22 09:41:26;;;;;;;3.03;2.83;;;52.20;24.00;;;;;;5052047;28;20206;-70
2023/08/22 09:44:02;;;;;;;3.40;2.90;;;50.90;24.10;;;;;;5054918;28;20202;-71
2023/08/22 09:46:29;;;;;;;3.20;3.00;;;49.90;25.20;;;;;;5047310;28;20491;-71
2023/08/22 09:49:00;;;;;;;3.37;3.07;;;48.90;25.60;;;;;;5046412;28;20429;-71
2023/08/22 09:51:26;;;;;;;3.60;3.00;;;47.90;26.20;;;;;;5054986;28;20447;-72
2023/08/22 09:53:59;;;;;;;4.60;3.03;;;47.30;26.50;;;;;;5055377;28;20474;-71
2023/08/22 09:56:25;;;;;;;4.33;2.90;;;47.20;26.30;;;;;;5055389;28;20395;-70
2023/08/22 09:58:52;;;;;;;5.67;3.03;;;47.90;26.60;;;;;;5054653;28;20400;-71
2023/08/22 10:01:19;;;;;;;3.87;2.90;;;48.70;26.00;;;;;;5057258;28;20174;-71
2023/08/22 10:03:46;;;;;;;4.53;3.23;;;48.80;25.50;;;;;;5055299;28;20470;-72
2023/08/22 10:06:13;;;;;;;3.47;3.17;;;48.10;24.00;;;;;;5051828;28;20421;-72
2023/08/22 10:08:41;;;;;;;2.97;2.70;;;47.20;24.90;;;;;;5034456;28;20464;-71
2023/08/22 10:11:08;;;;;;;3.23;2.23;;;47.70;25.80;;;;;;5034218;28;20402;-71
2023/08/22 10:13:36;;;;;;;3.60;3.17;;;47.50;25.80;;;;;;5034062;28;20431;-72
2023/08/22 10:16:02;;;;;;;3.40;3.00;;;46.20;24.40;;;;;;5033800;28;20400;-71
2023/08/22 10:18:29;;;;;;;3.30;3.00;;;45.40;26.00;;;;;;5033762;28;20492;-71
2023/08/22 10:20:55;;;;;;;3.50;2.70;;;45.00;26.40;;;;;;5033888;28;20406;-70
2023/08/22 10:23:52;;;;;;;3.53;2.80;;;45.50;27.90;;;;;;5033856;28;20429;-71
2023/08/22 10:26:25;;;;;;;2.83;2.60;;;45.70;27.00;;;;;;5033170;28;20496;-71
2023/08/22 10:29:16;;;;;;;3.60;2.90;;;45.30;27.60;;;;;;5032922;28;20776;-71
2023/08/22 10:32:02;;;;;;;2.43;2.20;;;44.20;26.40;;;;;;5033356;28;20478;-71
2023/08/22 10:34:33;;;;;;;2.87;2.50;;;43.40;28.10;;;;;;5044254;28;20459;-72
2023/08/22 10:37:00;;;;;;;2.47;2.27;;;43.40;28.60;;;;;;5039946;28;20405;-70
2023/08/22 10:39:37;;;;;;;3.50;2.10;;;44.00;28.40;;;;;;5048750;28;20387;-71
2023/08/22 10:42:03;;;;;;;4.77;2.50;;;44.50;27.90;;;;;;5049593;28;20436;-71
2023/08/22 10:44:30;;;;;;;4.50;2.77;;;45.10;28.00;;;;;;5045598;28;20754;-72
2023/08/22 10:46:59;;;;;;;3.57;2.90;;;46.20;27.70;;;;;;5047201;28;20844;-72
2023/08/22 10:49:32;;;;;;;3.40;2.30;;;48.20;25.80;;;;;;5053248;28;20388;-72
2023/08/22 10:52:16;;;;;;;5.03;2.70;;;50.40;25.80;;;;;;5054287;28;20793;-71
2023/08/22 10:55:20;;;;;;;3.50;2.40;;;51.30;24.40;;;;;;5054753;28;20474;-72
2023/08/22 10:57:47;;;;;;;3.97;2.33;;;50.00;23.40;;;;;;5051816;28;20424;-69
2023/08/22 11:00:19;;;;;;;3.20;2.03;;;48.50;23.80;;;;;;5046196;28;20417;-72
2023/08/22 11:02:47;;;;;;;3.33;2.63;;;46.60;24.20;;;;;;5022468;28;20843;-71
2023/08/22 11:05:13;;;;;;;2.73;2.50;;;44.60;24.20;;;;;;5033555;28;20401;-71
2023/08/22 11:07:41;;;;;;;2.47;2.27;;;43.30;25.80;;;;;;5035158;28;20455;-70
2023/08/22 11:10:14;;;;;;;3.00;2.23;;;42.20;27.10;;;;;;5035497;28;20430;-70
2023/08/22 11:12:40;;;;;;;6.57;2.40;;;41.00;28.10;;;;;;5034397;28;20540;-71
2023/08/22 11:15:07;;;;;;;2.50;2.30;;;40.00;29.10;;;;;;5034550;28;20489;-70
2023/08/22 11:17:32;;;;;;;2.60;2.40;;;39.10;29.60;;;;;;5044887;28;20404;-72
2023/08/22 11:19:58;;;;;;;3.43;2.30;;;38.20;30.00;;;;;;5050122;28;20480;-72
2023/08/22 11:22:24;;;;;;;5.57;3.63;;;37.00;31.00;;;;;;5057208;28;20209;-72
2023/08/22 11:24:51;;;;;;;3.13;2.83;;;36.40;32.40;;;;;;5058632;28;20170;-72
2023/08/22 11:27:17;;;;;;;3.30;2.60;;;36.10;33.80;;;;;;5057256;28;20445;-72
2023/08/22 11:29:49;;;;;;;3.73;2.63;;;35.80;34.70;;;;;;5056101;28;20409;-72
2023/08/22 11:32:24;;;;;;;3.67;2.17;;;35.70;35.00;;;;;;5069412;28;20535;-72
2023/08/22 11:34:51;;;;;;;2.47;2.30;;;35.50;35.80;;;;;;5074662;28;20916;-72
2023/08/22 11:37:18;;;;;;;6.63;2.43;;;35.60;36.40;;;;;;5074899;28;20901;-72
2023/08/22 11:39:51;;;;;;;3.77;2.60;;;36.10;36.50;;;;;;5052655;28;20513;-72
2023/08/22 11:42:18;;;;;;;2.40;2.20;;;37.00;36.30;;;;;;5042083;28;20472;-72
2023/08/22 11:45:08;;;;;;;3.63;2.33;;;38.20;35.90;;;;;;5056101;28;20392;-72
2023/08/22 11:47:42;;;;;;;3.83;2.33;;;40.40;34.20;;;;;;5057112;28;20479;-72
2023/08/22 11:50:18;;;;;;;2.60;2.40;;;42.80;32.00;;;;;;5057939;28;20830;-71
2023/08/22 11:52:46;;;;;;;6.20;2.47;;;45.40;29.50;;;;;;5058874;28;20546;-73
2023/08/22 11:55:16;;;;;;;2.27;2.10;;;47.40;28.30;;;;;;5059556;28;20463;-71
2023/08/22 11:57:43;;;;;;;2.67;2.47;;;48.90;27.10;;;;;;5059283;28;20500;-71
2023/08/22 12:00:15;;;;;;;3.67;3.37;;;51.20;26.60;;;;;;5058193;28;20414;-72
2023/08/22 12:02:51;;;;;;;3.63;3.30;;;53.70;24.50;;;;;;5058311;28;20441;-72
2023/08/22 12:05:33;;;;;;;4.70;3.90;;;55.40;23.10;;;;;;5055577;28;20440;-71
2023/08/22 12:08:00;;;;;;;3.70;3.50;;;56.50;22.50;;;;;;5054055;28;20463;-72
2023/08/22 12:10:40;;;;;;;4.53;4.20;;;56.20;22.20;;;;;;5058091;28;20417;-71
2023/08/22 12:13:06;;;;;;;2.80;2.60;;;54.30;19.90;;;;;;5041222;28;20454;-72
2023/08/22 12:15:33;;;;;;;3.80;2.97;;;52.40;21.50;;;;;;5067373;28;20675;-72
2023/08/22 12:17:59;;;;;;;4.10;3.43;;;50.50;22.60;;;;;;5077111;28;20446;-71
2023/08/22 12:20:25;;;;;;;2.73;2.50;;;48.80;23.50;;;;;;5079367;28;20444;-71
2023/08/22 12:22:50;;;;;;;3.23;2.93;;;47.30;24.40;;;;;;5077852;28;20436;-70
2023/08/22 12:25:16;;;;;;;2.63;2.43;;;46.00;25.30;;;;;;5062559;28;20179;-71
2023/08/22 12:27:41;;;;;;;2.90;2.70;;;45.20;26.30;;;;;;5059033;28;20175;-71
2023/08/22 12:30:07;;;;;;;2.47;2.30;;;44.80;26.80;;;;;;5059316;28;20171;-71
2023/08/22 12:32:33;;;;;;;3.17;2.60;;;44.30;26.90;;;;;;5058633;28;20725;-71
2023/08/22 12:34:59;;;;;;;3.00;2.80;;;44.20;27.20;;;;;;5058599;28;20877;-70
2023/08/22 12:37:25;;;;;;;5.60;3.03;;;44.30;27.30;;;;;;5057721;28;20436;-71
2023/08/22 12:39:50;;;;;;;3.00;2.70;;;44.60;27.10;;;;;;5053372;28;20565;-70
2023/08/22 12:42:16;;;;;;;2.80;2.60;;;44.30;27.00;;;;;;5048003;28;20200;-71
2023/08/22 12:44:42;;;;;;;2.00;1.90;;;44.40;27.00;;;;;;5061891;28;20170;-71